< Typhoon 198622 1986 Season Typhoon 198624 >
Typhoon 198623 (HERBERT)
General InformationTrack Information on Google MapsDetailed Wind InformationList of All Images || Disaster Info.ResourceGoogle EarthGE AnimationAtom FeedGeoJSON
Detalied Best Track (Time Zone = UTC)
Year Month Day Hour Lat. Long. Pressure (hPa) Wind (kt) Class Image Chart
1986 11 6 00 12.0 128.0 1004 0 2 Image Chart
1986 11 6 06 12.0 127.0 1004 0 2 Image Chart
1986 11 6 12 12.0 126.0 1004 0 2 Image Chart
1986 11 6 18 12.0 125.0 1004 0 2 Image Chart
1986 11 7 00 12.0 124.0 1004 0 2 Image Chart
1986 11 7 06 12.0 123.0 1002 0 2 Image Chart
1986 11 7 12 12.0 122.0 1002 0 2 Image Chart
1986 11 7 18 12.5 121.0 1002 0 2 Image Chart
1986 11 8 00 12.7 119.7 996 0 2 Image Chart
1986 11 8 06 13.0 119.0 990 35 3 Image Chart
1986 11 8 12 13.3 118.3 990 40 3 Image Chart
1986 11 8 18 13.6 117.6 985 40 3 Image Chart
1986 11 9 00 14.0 116.9 985 50 4 Image Chart
1986 11 9 06 13.8 116.3 990 55 4 Image Chart
1986 11 9 12 13.4 115.7 990 55 4 Image Chart
1986 11 9 18 13.5 115.0 985 55 4 Image Chart
1986 11 10 00 13.7 114.3 985 60 4 Image Chart
1986 11 10 06 13.9 113.5 985 60 4 Image Chart
1986 11 10 12 14.0 112.7 990 60 4 Image Chart
1986 11 10 18 13.7 111.9 990 45 3 Image Chart
1986 11 11 00 13.5 111.0 990 40 3 Image Chart
1986 11 11 06 13.8 110.6 992 40 3 Image Chart
1986 11 11 12 14.1 110.1 992 40 3 Image Chart
1986 11 11 18 14.3 109.6 994 40 3 Image Chart
1986 11 12 00 14.5 109.0 1002 0 2 Image Chart
1986 11 12 06 14.7 108.4 1008 0 2 Image Chart
Japan Meteorological Agency Best Track Data | Correction Date : 1992-10-21
< Typhoon 198622 1986 Season Typhoon 198624 >

Help